Time,TemperatureF,DewpointF,PressureIn,WindDirection,WindDirectionDegrees,WindSpeedMPH,WindSpeedGustMPH,Humidity,HourlyPrecipIn,Conditions,Clouds,dailyrainin,SoftwareType,DateUTC
2013-12-19 00:12:00,31.0,18.0,-100.00,SE,138,3.0,3.0,57,0.00,,,0.00,,2013-12-19 05:12:00,
2013-12-19 00:22:00,30.0,18.0,-100.00,SE,141,2.0,4.0,61,0.00,,,0.00,,2013-12-19 05:22:00,
2013-12-19 01:12:00,31.0,19.0,-100.00,SE,137,2.0,4.0,60,0.00,,,0.00,,2013-12-19 06:12:00,
2013-12-19 01:22:00,31.0,18.0,-100.00,SE,141,4.0,5.0,58,0.00,,,0.00,,2013-12-19 06:22:00,
2013-12-19 01:42:00,29.0,20.0,-100.00,SE,144,5.0,6.0,66,0.00,,,0.00,,2013-12-19 06:42:00,
2013-12-19 01:52:00,29.0,19.0,-100.00,SE,144,5.0,7.0,67,0.00,,,0.00,,2013-12-19 06:52:00,
2013-12-19 02:12:00,27.0,20.0,-100.00,SE,144,6.0,7.0,75,0.00,,,0.00,,2013-12-19 07:12:00,
2013-12-19 02:22:00,26.0,20.0,-100.00,SE,143,6.0,9.0,76,0.00,,,0.00,,2013-12-19 07:22:00,
2013-12-19 02:42:00,27.0,20.0,-100.00,SE,143,7.0,9.0,74,0.00,,,0.00,,2013-12-19 07:42:00,
2013-12-19 02:52:00,29.0,19.0,-100.00,SE,144,7.0,10.0,67,0.00,,,0.00,,2013-12-19 07:52:00,
2013-12-19 03:11:00,31.0,18.0,-100.00,SE,124,6.0,11.0,57,0.00,,,0.00,,2013-12-19 08:11:00,
2013-12-19 03:22:00,32.0,18.0,-100.00,ESE,107,6.0,11.0,57,0.00,,,0.00,,2013-12-19 08:22:00,
2013-12-19 03:42:00,29.0,19.0,-100.00,SE,131,6.0,9.0,67,0.00,,,0.00,,2013-12-19 08:42:00,
2013-12-19 04:11:00,29.0,19.0,-100.00,SE,143,5.0,7.0,66,0.00,,,0.00,,2013-12-19 09:11:00,
2013-12-19 04:22:00,30.0,20.0,-100.00,SE,131,3.0,5.0,65,0.00,,,0.00,,2013-12-19 09:22:00,
2013-12-19 04:43:00,30.0,20.0,-100.00,SE,143,3.0,4.0,65,0.00,,,0.00,,2013-12-19 09:43:00,
2013-12-19 04:54:00,30.0,20.0,-100.00,SE,137,3.0,4.0,66,0.00,,,0.00,,2013-12-19 09:54:00,
2013-12-19 05:12:00,29.0,19.0,-100.00,SSE,147,4.0,6.0,66,0.00,,,0.00,,2013-12-19 10:12:00,
2013-12-19 05:23:00,29.0,20.0,-100.00,SE,136,3.0,5.0,68,0.00,,,0.00,,2013-12-19 10:23:00,
2013-12-19 05:43:00,29.0,19.0,-100.00,SE,133,2.0,5.0,66,0.00,,,0.00,,2013-12-19 10:43:00,
2013-12-19 06:12:00,30.0,19.0,-100.00,SE,140,3.0,5.0,64,0.00,,,0.00,,2013-12-19 11:12:00,
2013-12-19 06:22:00,29.0,20.0,-100.00,SE,133,4.0,5.0,69,0.00,,,0.00,,2013-12-19 11:22:00,
2013-12-19 06:42:00,29.0,19.0,-100.00,SE,141,2.0,4.0,66,0.00,,,0.00,,2013-12-19 11:42:00,
2013-12-19 06:53:00,29.0,20.0,-100.00,SE,143,3.0,5.0,67,0.00,,,0.00,,2013-12-19 11:53:00,
2013-12-19 07:12:00,29.0,19.0,-100.00,SE,141,2.0,4.0,67,0.00,,,0.00,,2013-12-19 12:12:00,
2013-12-19 07:22:00,29.0,19.0,-100.00,SE,133,1.0,3.0,66,0.00,,,0.00,,2013-12-19 12:22:00,
2013-12-19 07:42:00,30.0,18.0,-100.00,SE,133,2.0,3.0,61,0.00,,,0.00,,2013-12-19 12:42:00,
2013-12-19 07:52:00,31.0,17.0,-100.00,ESE,112,0.0,0.0,57,0.00,,,0.00,,2013-12-19 12:52:00,
2013-12-19 08:11:00,32.0,18.0,-100.00,SE,130,1.0,2.0,55,0.00,,,0.00,,2013-12-19 13:11:00,
2013-12-19 08:22:00,32.0,20.0,-100.00,SE,131,2.0,3.0,61,0.00,,,0.00,,2013-12-19 13:22:00,
2013-12-19 08:42:00,32.0,18.0,-100.00,SE,128,2.0,4.0,56,0.00,,,0.00,,2013-12-19 13:42:00,
2013-12-19 08:52:00,33.0,19.0,-100.00,SE,140,2.0,4.0,57,0.00,,,0.00,,2013-12-19 13:52:00,
2013-12-19 09:12:00,33.0,20.0,-100.00,SE,133,1.0,3.0,59,0.00,,,0.00,,2013-12-19 14:12:00,
2013-12-19 11:13:00,40.0,24.0,-100.00,SE,144,4.0,5.0,54,0.00,,,0.00,,2013-12-19 16:13:00,
2013-12-19 11:23:00,40.0,24.0,-100.00,SSE,147,4.0,5.0,52,0.00,,,0.00,,2013-12-19 16:23:00,
2013-12-19 11:42:00,40.0,25.0,-100.00,SE,143,4.0,6.0,54,0.00,,,0.00,,2013-12-19 16:42:00,
2013-12-19 11:53:00,42.0,25.0,-100.00,SE,145,4.0,6.0,50,0.00,,,0.00,,2013-12-19 16:53:00,
2013-12-19 12:12:00,44.0,26.0,-100.00,SE,141,4.0,6.0,49,0.00,,,0.00,,2013-12-19 17:12:00,
2013-12-19 12:22:00,44.0,27.0,-100.00,SSE,148,5.0,6.0,51,0.00,,,0.00,,2013-12-19 17:22:00,
2013-12-19 12:42:00,45.0,26.0,-100.00,SSE,148,5.0,7.0,48,0.00,,,0.00,,2013-12-19 17:42:00,
2013-12-19 12:53:00,47.0,26.0,-100.00,SE,143,5.0,7.0,44,0.00,,,0.00,,2013-12-19 17:53:00,
2013-12-19 13:12:00,47.0,28.0,-100.00,SSE,151,5.0,7.0,46,0.00,,,0.00,,2013-12-19 18:12:00,
2013-12-19 13:22:00,48.0,27.0,-100.00,SSE,152,5.0,7.0,44,0.00,,,0.00,,2013-12-19 18:22:00,
2013-12-19 13:52:00,51.0,27.0,-100.00,SSE,147,6.0,8.0,41,0.00,,,0.00,,2013-12-19 18:52:00,
2013-12-19 14:11:00,51.0,26.0,-100.00,SSE,147,7.0,10.0,38,0.00,,,0.00,,2013-12-19 19:11:00,
2013-12-19 14:22:00,52.0,26.0,-100.00,SE,140,7.0,10.0,37,0.00,,,0.00,,2013-12-19 19:22:00,
2013-12-19 14:52:00,53.0,27.0,-100.00,SE,141,8.0,10.0,37,0.00,,,0.00,,2013-12-19 19:52:00,
2013-12-19 15:12:00,53.0,27.0,-100.00,SSE,147,8.0,12.0,37,0.00,,,0.00,,2013-12-19 20:12:00,
2013-12-19 15:22:00,52.0,28.0,-100.00,SSE,147,8.0,9.0,39,0.00,,,0.00,,2013-12-19 20:22:00,
2013-12-19 15:42:00,53.0,28.0,-100.00,SSE,147,7.0,9.0,38,0.00,,,0.00,,2013-12-19 20:42:00,
2013-12-19 15:52:00,52.0,27.0,-100.00,SSE,147,8.0,9.0,38,0.00,,,0.00,,2013-12-19 20:52:00,
2013-12-19 16:11:00,53.0,27.0,-100.00,SE,145,7.0,11.0,36,0.00,,,0.00,,2013-12-19 21:11:00,
2013-12-19 16:22:00,52.0,28.0,-100.00,SSE,151,6.0,8.0,39,0.00,,,0.00,,2013-12-19 21:22:00,
2013-12-19 16:43:00,51.0,27.0,-100.00,SSE,155,6.0,8.0,40,0.00,,,0.00,,2013-12-19 21:43:00,
2013-12-19 16:53:00,50.0,30.0,-100.00,SSE,148,4.0,6.0,45,0.00,,,0.00,,2013-12-19 21:53:00,
2013-12-19 17:13:00,50.0,31.0,-100.00,SE,141,4.0,7.0,48,0.00,,,0.00,,2013-12-19 22:13:00,
2013-12-19 17:23:00,50.0,29.0,-100.00,SE,141,3.0,5.0,43,0.00,,,0.00,,2013-12-19 22:23:00,
2013-12-19 17:43:00,50.0,29.0,-100.00,SE,137,3.0,4.0,43,0.00,,,0.00,,2013-12-19 22:43:00,
2013-12-19 17:53:00,51.0,29.0,-100.00,SSE,148,2.0,4.0,43,0.00,,,0.00,,2013-12-19 22:53:00,
2013-12-19 18:13:00,51.0,27.0,-100.00,SSE,150,2.0,4.0,39,0.00,,,0.00,,2013-12-19 23:13:00,
2013-12-19 18:22:00,53.0,24.0,-100.00,ESE,110,1.0,4.0,32,0.00,,,0.00,,2013-12-19 23:22:00,
2013-12-19 19:12:00,52.0,24.0,-100.00,SSE,150,2.0,4.0,34,0.00,,,0.00,,2013-12-20 00:12:00,
2013-12-19 19:22:00,53.0,26.0,-100.00,ESE,117,2.0,3.0,35,0.00,,,0.00,,2013-12-20 00:22:00,
2013-12-19 19:42:00,53.0,25.0,-100.00,ESE,123,2.0,3.0,34,0.00,,,0.00,,2013-12-20 00:42:00,
2013-12-19 19:53:00,51.0,27.0,-100.00,SE,141,3.0,4.0,39,0.00,,,0.00,,2013-12-20 00:53:00,
2013-12-19 20:12:00,52.0,27.0,-100.00,SE,140,3.0,4.0,38,0.00,,,0.00,,2013-12-20 01:12:00,
2013-12-19 20:22:00,50.0,25.0,-100.00,SE,136,2.0,3.0,37,0.00,,,0.00,,2013-12-20 01:22:00,
2013-12-19 20:42:00,53.0,27.0,-100.00,SE,130,2.0,5.0,36,0.00,,,0.00,,2013-12-20 01:42:00,
2013-12-19 20:52:00,51.0,27.0,-100.00,SE,128,3.0,4.0,39,0.00,,,0.00,,2013-12-20 01:52:00,
2013-12-19 21:11:00,49.0,26.0,-100.00,SE,130,4.0,5.0,39,0.00,,,0.00,,2013-12-20 02:11:00,
2013-12-19 21:22:00,49.0,26.0,-100.00,SE,130,3.0,4.0,40,0.00,,,0.00,,2013-12-20 02:22:00,
2013-12-19 21:42:00,49.0,27.0,-100.00,SE,124,3.0,4.0,41,0.00,,,0.00,,2013-12-20 02:42:00,
2013-12-19 21:52:00,48.0,25.0,-100.00,SE,126,3.0,5.0,39,0.00,,,0.00,,2013-12-20 02:52:00,
2013-12-19 22:11:00,48.0,27.0,-100.00,SE,138,4.0,6.0,43,0.00,,,0.00,,2013-12-20 03:11:00,
2013-12-19 22:22:00,48.0,25.0,-100.00,SE,131,4.0,5.0,40,0.00,,,0.00,,2013-12-20 03:22:00,
2013-12-19 22:44:00,48.0,25.0,-100.00,SE,134,4.0,6.0,40,0.00,,,0.00,,2013-12-20 03:44:00,
2013-12-19 22:53:00,47.0,26.0,-100.00,SE,140,4.0,6.0,42,0.00,,,0.00,,2013-12-20 03:53:00,
2013-12-19 23:13:00,47.0,26.0,-100.00,SE,140,5.0,7.0,43,0.00,,,0.00,,2013-12-20 04:13:00,
2013-12-19 23:23:00,49.0,25.0,-100.00,SE,140,5.0,6.0,38,0.00,,,0.00,,2013-12-20 04:23:00,
2013-12-19 23:43:00,48.0,26.0,-100.00,SE,145,5.0,8.0,42,0.00,,,0.00,,2013-12-20 04:43:00,
2013-12-19 23:53:00,48.0,25.0,-100.00,SE,141,5.0,7.0,41,0.00,,,0.00,,2013-12-20 04:53:00,